Flight Track Log - Related Links

Times and Time Zones

All times are in EST time to prevent confusion due to time zone crossing. See the N3558D flight status page for this flight to view local times or setup timezone preferences in your user account.

Time Position Orientation Groundspeed Altitude Reporting Facility
EST Latitude Longitude Course Direction KTS MPH feet Rate Location/Type
Sat 06:02:02 PM 28.5667 -81.3167 156° South 73 84 1,400  Level Orlando TRACON
Sat 06:03:13 PM 28.5833 -81.2833 60° Northeast 82 94 2,000 286 Climbing Orlando TRACON
Sat 06:04:08 PM 28.6000 -81.2833 360° North 96 110 2,000 417 Level Orlando TRACON
Sat 06:05:08 PM 28.6000 -81.2500 90° East 81 93 2,800 700 Climbing Orlando TRACON
Sat 06:06:08 PM 28.6000 -81.2167 90° East 93 107 3,400 600 Climbing Orlando TRACON
Sat 06:07:00 PM 28.3775 -81.2479 156° South  Level Estimated
Sat 06:07:08 PM 28.6167 -81.2000 41° Northeast 102 117 4,000  Level Orlando TRACON
Sat 06:08:02 PM 28.6167 -81.1667 90° East 109 125 4,500 408 Climbing Orlando TRACON
Sat 06:12:02 PM 28.5667 -81.0500 160° South 96 110 6,000 185 Climbing Orlando TRACON
Sat 06:16:08 PM 28.4500 -81.0167 162° South 100 115 6,000  Level Orlando TRACON
Sat 06:17:00 PM 28.3589 -81.0583 160° South  Level Estimated
Sat 06:17:03 PM 28.4333 -81.0167 180° South 101 116 6,000  Level Orlando TRACON
Sat 06:18:03 PM 28.4000 -81.0167 180° South 90 104 6,400 484 Climbing Orlando TRACON
Sat 06:20:09 PM 28.3500 -81.0167 180° South 86 99 7,500 467 Climbing Orlando TRACON
Sat 06:20:50 PM 28.3408 -81.0128 160° South 87 100 7,700 297 Climbing Miami Center
Sat 06:21:00 PM 28.3060 -80.9513 162° South  Level Estimated
Sat 06:21:50 PM 28.3142 -80.9975 153° Southeast 87 100 8,000  Level Miami Center
Sat 06:22:50 PM 28.2831 -80.9894 167° South 107 123 7,900 -50 Descending Miami Center
Sat 06:23:50 PM 28.2539 -80.9836 170° South 107 123 7,900 50 Level Miami Center
Sat 06:24:50 PM 28.2317 -80.9639 142° Southeast 107 123 8,000  Climbing Miami Center
Sat 06:25:50 PM 28.2025 -80.9558 166° South 113 130 7,900 -50 Descending Miami Center
Sat 06:26:50 PM 28.1717 -80.9381 153° Southeast 108 124 7,900 50 Level Miami Center
Sat 06:27:50 PM 28.1447 -80.9347 174° South 108 124 8,000 50 Climbing Miami Center
Sat 06:28:50 PM 28.1156 -80.9292 170° South 102 117 8,000  Level Miami Center
Sat 06:29:50 PM 28.0908 -80.9189 160° South 102 117 8,000  Level Miami Center
Sat 06:30:50 PM 28.0575 -80.9153 175° South 102 117 8,000  Level Miami Center
Sat 06:31:50 PM 28.0286 -80.9047 162° South 107 123 8,000  Level Miami Center
Sat 06:32:49 PM 28.0017 -80.8969 166° South 107 123 8,000  Level Miami Center
Sat 06:33:49 PM 27.9747 -80.8936 174° South 107 123 8,000  Level Miami Center
Sat 06:34:49 PM 27.9456 -80.8900 174° South 102 117 8,000  Level Miami Center
Sat 06:35:49 PM 27.9164 -80.8867 174° South 102 117 8,000  Level Miami Center
Sat 06:36:49 PM 27.8856 -80.8786 167° South 102 117 8,000 -50 Level Miami Center
Sat 06:37:50 PM 27.8583 -80.8753 174° South 102 117 7,900  Descending Miami Center
Sat 06:38:50 PM 27.8333 -80.8744 178° South 102 117 8,000 50 Climbing Miami Center
Sat 06:39:50 PM 27.8042 -80.8733 178° South 102 117 8,000  Level Miami Center
Sat 06:40:50 PM 27.7731 -80.8653 167° South 102 117 8,000  Level Miami Center
Sat 06:41:50 PM 27.7419 -80.8547 163° South 107 123 8,000  Level Miami Center
Sat 06:42:50 PM 27.7131 -80.8514 174° South 107 123 8,000  Level Miami Center
Sat 06:43:50 PM 27.6900 -80.8483 173° South 102 117 8,000  Level Miami Center
Sat 06:44:50 PM 27.6589 -80.8425 171° South 102 117 8,000  Level Miami Center
Sat 06:45:50 PM 27.6300 -80.8297 159° South 102 117 8,000  Level Miami Center
Sat 06:46:50 PM 27.6031 -80.8242 170° South 107 123 8,000  Level Miami Center
Sat 06:47:50 PM 27.5739 -80.8231 178° South 100 115 8,000 -50 Level Miami Center
Sat 06:48:49 PM 27.5447 -80.8244 182° South 100 115 7,900  Descending Miami Center
Sat 06:50:50 PM 27.4886 -80.8108 168° South 100 115 8,000 33 Climbing Miami Center
Sat 06:51:49 PM 27.4594 -80.8122 182° South 105 121 8,000  Level Miami Center
Sat 06:52:50 PM 27.4303 -80.8064 170° South 105 121 8,000 -300 Level Miami Center
Sat 06:54:49 PM 27.3656 -80.8042 178° South 105 121 7,100 -536 Descending Miami Center
Sat 06:55:49 PM 27.3325 -80.7983 171° South 117 135 6,400 -550 Descending Miami Center
Sat 06:56:49 PM 27.3036 -80.7833 155° Southeast 118 136 6,000 -200 Descending Miami Center
Sat 06:57:49 PM 27.2706 -80.7706 161° South 118 136 6,000  Level Miami Center
Sat 06:58:49 PM 27.2414 -80.7697 179° South 107 123 6,000  Level Miami Center
Sat 07:00:49 PM 27.1872 -80.7583 157° South 102 117 6,000  Level Miami Center
Sat 07:01:50 PM 27.1603 -80.7600 183° South 102 117 6,000  Level Miami Center
Sat 07:02:49 PM 27.1314 -80.7381 146° Southeast 102 117 6,000 -120 Level Miami Center
Sat 07:06:49 PM 27.0150 -80.7225 173° South 107 123 5,400 -339 Descending Miami Center
Sat 07:07:50 PM 26.9797 -80.7189 175° South 124 143 4,300 -198 Descending Miami Center
Sat 07:19:58 PM 26.6203 -80.5631 158° South 137 158 2,800 -99 Descending Miami Center
Sat 07:21:59 PM 26.5714 -80.5172 206° Southwest 117 135 2,900 33 Climbing Miami Center
Sat 07:22:00 PM 26.6101 -80.6050 156° South  Level FlightAware Approximate
Sat 07:23:00 PM 26.5828 -80.5914 156° South  Level FlightAware Approximate
Sat 07:23:01 PM 26.5447 -80.4911 139° Southeast 117 135 2,900  Level Miami Center
Sat 07:24:00 PM 26.5553 -80.5782 158° South  Level FlightAware Approximate
Sat 07:25:00 PM 26.5277 -80.5656 158° South  Level FlightAware Approximate
Sat 07:25:02 PM 26.5003 -80.4386 133° Southeast 116 133 2,900  Level Miami Center
Sat 07:26:04 PM 26.4736 -80.4144 141° Southeast 122 140 2,800  Descending Miami Center
Sat 07:27:05 PM 26.4492 -80.3906 139° Southeast 117 135 2,900 49 Climbing Miami Center
Sat 07:28:06 PM 26.4225 -80.3689 144° Southeast 118 136 2,900  Level Miami Center
Sat 07:29:07 PM 26.3981 -80.3428 136° Southeast 119 137 2,900  Level Miami Center
Sat 07:30:08 PM 26.3758 -80.3164 133° Southeast 116 133 2,900 -33 Level Miami Center
Sat 07:32:10 PM 26.3289 -80.2642 135° Southeast 119 137 2,800  Descending Miami Center
Sat 07:33:11 PM 26.3131 -80.2336 120° Southeast 116 133 2,900  Climbing Miami Center
Sat 07:34:18 PM 26.2950 -80.1961 118° Southeast 115 132 2,800 -49 Descending Miami Center
Sat 07:35:13 PM 26.2831 -80.1678 115° Southeast 116 133 2,800 49 Level Miami Center
Sat 07:36:20 PM 26.2778 -80.1306 99° East 115 132 2,900 -49 Climbing Miami Center
Sat 07:37:15 PM 26.2678 -80.1003 110° East 119 137 2,700 -724 Descending Miami Center
Sat 07:38:16 PM 26.2411 -80.0786 144° Southeast 124 143 1,500 -639 Descending Miami Center
Sat 07:39:17 PM 26.2139 -80.0825 187° South 89 102 1,400 -197 Descending Miami Center
Sat 07:40:18 PM 26.2008 -80.1053 237° Southwest 81 93 1,100 -331 Descending Miami Center
Sat 07:41:24 PM 26.2003 -80.1308 269° West 74 85 700 -446 Descending Miami Center
Sat 07:42:19 PM 26.1958 -80.1539 258° West 77 89 200 -545 Descending Miami Center
Sat 07:44:00 PM 26.1973 -80.1707 253° West  Level Estimated
Sat 07:51:00 PM 26.1973 -80.1707 74° East  Level Estimated

Login

Don't have an account? Register now (free) for customized features, flight alerts, and more!